sensor_id;sensor_type;location;lat;lon;timestamp;pressure;altitude;pressure_sealevel;temperature
80246;BMP280;69558;39.208;-77.226;2023-05-10T00:01:10;100100.44;;;21.06
80246;BMP280;69558;39.208;-77.226;2023-05-10T00:03:36;100080.03;;;20.89
80246;BMP280;69558;39.208;-77.226;2023-05-10T00:06:02;100102.94;;;20.95
80246;BMP280;69558;39.208;-77.226;2023-05-10T00:08:28;100116.69;;;21.03
80246;BMP280;69558;39.208;-77.226;2023-05-10T00:10:53;100109.16;;;21.00
80246;BMP280;69558;39.208;-77.226;2023-05-10T00:13:19;100123.97;;;21.01
80246;BMP280;69558;39.208;-77.226;2023-05-10T00:15:45;100134.53;;;21.01
80246;BMP280;69558;39.208;-77.226;2023-05-10T00:18:11;100119.75;;;20.94
80246;BMP280;69558;39.208;-77.226;2023-05-10T00:20:37;100133.72;;;21.01
80246;BMP280;69558;39.208;-77.226;2023-05-10T00:23:03;100140.19;;;21.05
80246;BMP280;69558;39.208;-77.226;2023-05-10T00:25:30;100148.53;;;21.02
80246;BMP280;69558;39.208;-77.226;2023-05-10T00:27:55;100157.66;;;21.06
80246;BMP280;69558;39.208;-77.226;2023-05-10T00:30:22;100163.94;;;21.05
80246;BMP280;69558;39.208;-77.226;2023-05-10T00:32:49;100162.34;;;21.04
80246;BMP280;69558;39.208;-77.226;2023-05-10T00:35:17;100169.81;;;21.00
80246;BMP280;69558;39.208;-77.226;2023-05-10T00:37:43;100186.09;;;21.04
80246;BMP280;69558;39.208;-77.226;2023-05-10T00:40:10;100191.13;;;21.05
80246;BMP280;69558;39.208;-77.226;2023-05-10T00:42:36;100196.63;;;21.04
80246;BMP280;69558;39.208;-77.226;2023-05-10T00:45:02;100200.03;;;21.04
80246;BMP280;69558;39.208;-77.226;2023-05-10T00:47:28;100201.09;;;21.03
80246;BMP280;69558;39.208;-77.226;2023-05-10T00:49:55;100202.69;;;21.04
80246;BMP280;69558;39.208;-77.226;2023-05-10T00:52:21;100215.09;;;21.04
80246;BMP280;69558;39.208;-77.226;2023-05-10T00:54:50;100210.19;;;21.01
80246;BMP280;69558;39.208;-77.226;2023-05-10T00:57:17;100211.25;;;21.00
80246;BMP280;69558;39.208;-77.226;2023-05-10T00:59:43;100222.56;;;21.00
80246;BMP280;69558;39.208;-77.226;2023-05-10T01:02:10;100227.84;;;21.00
80246;BMP280;69558;39.208;-77.226;2023-05-10T01:04:37;100226.03;;;21.01
80246;BMP280;69558;39.208;-77.226;2023-05-10T01:07:04;100235.34;;;20.97
80246;BMP280;69558;39.208;-77.226;2023-05-10T01:09:32;100224.63;;;20.92
80246;BMP280;69558;39.208;-77.226;2023-05-10T01:11:58;100235.38;;;20.90
80246;BMP280;69558;39.208;-77.226;2023-05-10T01:14:26;100251.19;;;21.03
80246;BMP280;69558;39.208;-77.226;2023-05-10T01:16:52;100263.56;;;21.03
80246;BMP280;69558;39.208;-77.226;2023-05-10T01:19:23;100254.63;;;20.97
80246;BMP280;69558;39.208;-77.226;2023-05-10T01:22:02;100242.06;;;20.86
80246;BMP280;69558;39.208;-77.226;2023-05-10T01:27:38;100257.69;;;20.94
80246;BMP280;69558;39.208;-77.226;2023-05-10T01:36:05;100248.97;;;20.80
80246;BMP280;69558;39.208;-77.226;2023-05-10T01:44:14;100285.28;;;20.98
80246;BMP280;69558;39.208;-77.226;2023-05-10T01:46:49;100262.97;;;20.81
80246;BMP280;69558;39.208;-77.226;2023-05-10T01:49:26;100289.34;;;20.94
80246;BMP280;69558;39.208;-77.226;2023-05-10T01:52:00;100300.25;;;20.98
80246;BMP280;69558;39.208;-77.226;2023-05-10T01:54:30;100306.56;;;20.97
80246;BMP280;69558;39.208;-77.226;2023-05-10T01:57:00;100294.41;;;20.89
80246;BMP280;69558;39.208;-77.226;2023-05-10T01:59:31;100314.69;;;20.95
80246;BMP280;69558;39.208;-77.226;2023-05-10T02:02:07;100314.28;;;20.98
80246;BMP280;69558;39.208;-77.226;2023-05-10T02:04:38;100317.09;;;20.97
80246;BMP280;69558;39.208;-77.226;2023-05-10T02:07:06;100319.38;;;21.00
80246;BMP280;69558;39.208;-77.226;2023-05-10T02:09:34;100306.56;;;20.90
80246;BMP280;69558;39.208;-77.226;2023-05-10T02:12:02;100320.16;;;21.00
80246;BMP280;69558;39.208;-77.226;2023-05-10T02:14:35;100305.56;;;20.91
80246;BMP280;69558;39.208;-77.226;2023-05-10T02:17:04;100322.22;;;20.98
80246;BMP280;69558;39.208;-77.226;2023-05-10T02:19:32;100323.19;;;20.97
80246;BMP280;69558;39.208;-77.226;2023-05-10T02:21:59;100311.22;;;20.88
80246;BMP280;69558;39.208;-77.226;2023-05-10T02:24:27;100324.19;;;20.96
80246;BMP280;69558;39.208;-77.226;2023-05-10T02:26:54;100305.16;;;20.88
80246;BMP280;69558;39.208;-77.226;2023-05-10T02:29:25;100318.16;;;20.96
80246;BMP280;69558;39.208;-77.226;2023-05-10T02:31:54;100317.91;;;20.97
80246;BMP280;69558;39.208;-77.226;2023-05-10T02:34:22;100323.63;;;20.94
80246;BMP280;69558;39.208;-77.226;2023-05-10T02:36:49;100318.94;;;20.96
80246;BMP280;69558;39.208;-77.226;2023-05-10T02:39:21;100316.53;;;20.95
80246;BMP280;69558;39.208;-77.226;2023-05-10T02:41:48;100306.97;;;20.87
80246;BMP280;69558;39.208;-77.226;2023-05-10T02:44:18;100325.25;;;20.95
80246;BMP280;69558;39.208;-77.226;2023-05-10T02:46:45;100321.78;;;20.95
80246;BMP280;69558;39.208;-77.226;2023-05-10T02:49:12;100322.59;;;20.95
80246;BMP280;69558;39.208;-77.226;2023-05-10T02:51:47;100330.53;;;20.95
80246;BMP280;69558;39.208;-77.226;2023-05-10T02:54:27;100326.44;;;20.93
80246;BMP280;69558;39.208;-77.226;2023-05-10T02:56:58;100335.56;;;20.97
80246;BMP280;69558;39.208;-77.226;2023-05-10T02:59:27;100331.69;;;20.93
80246;BMP280;69558;39.208;-77.226;2023-05-10T03:01:53;100328.88;;;20.88
80246;BMP280;69558;39.208;-77.226;2023-05-10T03:04:19;100340.03;;;20.96
80246;BMP280;69558;39.208;-77.226;2023-05-10T03:06:45;100330.09;;;20.92
80246;BMP280;69558;39.208;-77.226;2023-05-10T03:09:11;100347.94;;;20.96
80246;BMP280;69558;39.208;-77.226;2023-05-10T03:12:14;100325.22;;;20.82
80246;BMP280;69558;39.208;-77.226;2023-05-10T03:15:11;100353.44;;;20.95
80246;BMP280;69558;39.208;-77.226;2023-05-10T03:18:04;100350.16;;;20.93
80246;BMP280;69558;39.208;-77.226;2023-05-10T03:20:38;100356.25;;;20.87
80246;BMP280;69558;39.208;-77.226;2023-05-10T03:25:40;100359.91;;;20.86
80246;BMP280;69558;39.208;-77.226;2023-05-10T03:28:07;100365.78;;;20.81
80246;BMP280;69558;39.208;-77.226;2023-05-10T03:30:34;100376.97;;;20.90
80246;BMP280;69558;39.208;-77.226;2023-05-10T03:33:05;100371.84;;;20.88
80246;BMP280;69558;39.208;-77.226;2023-05-10T03:35:34;100372.69;;;20.82
80246;BMP280;69558;39.208;-77.226;2023-05-10T03:38:00;100413.88;;;20.90
80246;BMP280;69558;39.208;-77.226;2023-05-10T03:40:26;100393.13;;;20.73
80246;BMP280;69558;39.208;-77.226;2023-05-10T03:43:00;100396.59;;;20.80
80246;BMP280;69558;39.208;-77.226;2023-05-10T03:45:26;100409.81;;;20.87
80246;BMP280;69558;39.208;-77.226;2023-05-10T03:47:52;100401.88;;;20.80
80246;BMP280;69558;39.208;-77.226;2023-05-10T03:50:20;100418.53;;;20.88
80246;BMP280;69558;39.208;-77.226;2023-05-10T03:52:45;100413.88;;;20.90
80246;BMP280;69558;39.208;-77.226;2023-05-10T03:55:11;100418.34;;;20.89
80246;BMP280;69558;39.208;-77.226;2023-05-10T03:57:38;100424.44;;;20.90
80246;BMP280;69558;39.208;-77.226;2023-05-10T04:00:05;100430.09;;;20.87
80246;BMP280;69558;39.208;-77.226;2023-05-10T04:02:31;100419.53;;;20.87
80246;BMP280;69558;39.208;-77.226;2023-05-10T04:04:57;100427.22;;;20.88
80246;BMP280;69558;39.208;-77.226;2023-05-10T04:07:23;100421.78;;;20.90
80246;BMP280;69558;39.208;-77.226;2023-05-10T04:09:49;100427.22;;;20.88
80246;BMP280;69558;39.208;-77.226;2023-05-10T04:12:16;100432.72;;;20.87
80246;BMP280;69558;39.208;-77.226;2023-05-10T04:14:41;100430.09;;;20.87
80246;BMP280;69558;39.208;-77.226;2023-05-10T04:17:07;100424.81;;;20.87
80246;BMP280;69558;39.208;-77.226;2023-05-10T04:19:34;100425.44;;;20.89
80246;BMP280;69558;39.208;-77.226;2023-05-10T04:22:01;100427.66;;;20.85
80246;BMP280;69558;39.208;-77.226;2023-05-10T04:24:27;100433.31;;;20.82
80246;BMP280;69558;39.208;-77.226;2023-05-10T04:26:54;100441.22;;;20.82
80246;BMP280;69558;39.208;-77.226;2023-05-10T04:29:21;100417.25;;;20.64
80246;BMP280;69558;39.208;-77.226;2023-05-10T04:31:47;100437.97;;;20.80
80246;BMP280;69558;39.208;-77.226;2023-05-10T04:34:17;100447.31;;;20.83
80246;BMP280;69558;39.208;-77.226;2023-05-10T04:36:44;100456.44;;;20.80
80246;BMP280;69558;39.208;-77.226;2023-05-10T04:39:10;100457.06;;;20.82
80246;BMP280;69558;39.208;-77.226;2023-05-10T04:41:38;100439.78;;;20.73
80246;BMP280;69558;39.208;-77.226;2023-05-10T04:44:04;100467.78;;;20.80
80246;BMP280;69558;39.208;-77.226;2023-05-10T04:46:33;100465.16;;;20.80
80246;BMP280;69558;39.208;-77.226;2023-05-10T04:48:59;100460.28;;;20.77
80246;BMP280;69558;39.208;-77.226;2023-05-10T04:51:25;100464.16;;;20.75
80246;BMP280;69558;39.208;-77.226;2023-05-10T04:53:51;100431.22;;;20.58
80246;BMP280;69558;39.208;-77.226;2023-05-10T04:56:17;100470.22;;;20.75
80246;BMP280;69558;39.208;-77.226;2023-05-10T04:58:44;100474.06;;;20.79
80246;BMP280;69558;39.208;-77.226;2023-05-10T05:01:10;100474.69;;;20.82
80246;BMP280;69558;39.208;-77.226;2023-05-10T05:03:36;100459.25;;;20.72
80246;BMP280;69558;39.208;-77.226;2023-05-10T05:06:02;100483.84;;;20.79
80246;BMP280;69558;39.208;-77.226;2023-05-10T05:08:28;100483.00;;;20.78
80246;BMP280;69558;39.208;-77.226;2023-05-10T05:10:54;100478.31;;;20.74
80246;BMP280;69558;39.208;-77.226;2023-05-10T05:13:20;100486.84;;;20.76
80246;BMP280;69558;39.208;-77.226;2023-05-10T05:15:46;100465.25;;;20.59
80246;BMP280;69558;39.208;-77.226;2023-05-10T05:18:13;100475.44;;;20.62
80246;BMP280;69558;39.208;-77.226;2023-05-10T05:20:42;100493.50;;;20.72
80246;BMP280;69558;39.208;-77.226;2023-05-10T05:23:09;100490.88;;;20.65
80246;BMP280;69558;39.208;-77.226;2023-05-10T05:25:35;100489.44;;;20.63
80246;BMP280;69558;39.208;-77.226;2023-05-10T05:28:02;100487.59;;;20.63
80246;BMP280;69558;39.208;-77.226;2023-05-10T05:30:28;100498.38;;;20.68
80246;BMP280;69558;39.208;-77.226;2023-05-10T05:32:54;100492.69;;;20.65
80246;BMP280;69558;39.208;-77.226;2023-05-10T05:35:20;100495.56;;;20.70
80246;BMP280;69558;39.208;-77.226;2023-05-10T05:37:46;100498.78;;;20.72
80246;BMP280;69558;39.208;-77.226;2023-05-10T05:40:15;100510.38;;;20.77
80246;BMP280;69558;39.208;-77.226;2023-05-10T05:42:41;100502.88;;;20.74
80246;BMP280;69558;39.208;-77.226;2023-05-10T05:45:08;100500.25;;;20.74
80246;BMP280;69558;39.208;-77.226;2023-05-10T05:47:34;100505.88;;;20.71
80246;BMP280;69558;39.208;-77.226;2023-05-10T05:50:00;100510.16;;;20.72
80246;BMP280;69558;39.208;-77.226;2023-05-10T05:52:26;100514.59;;;20.72
80246;BMP280;69558;39.208;-77.226;2023-05-10T05:54:51;100517.03;;;20.73
80246;BMP280;69558;39.208;-77.226;2023-05-10T05:57:18;100508.16;;;20.74
80246;BMP280;69558;39.208;-77.226;2023-05-10T05:59:44;100504.06;;;20.72
80246;BMP280;69558;39.208;-77.226;2023-05-10T06:02:11;100500.03;;;20.69
80246;BMP280;69558;39.208;-77.226;2023-05-10T06:04:38;100503.88;;;20.67
80246;BMP280;69558;39.208;-77.226;2023-05-10T06:07:08;100500.00;;;20.63
80246;BMP280;69558;39.208;-77.226;2023-05-10T06:09:34;100509.91;;;20.67
80246;BMP280;69558;39.208;-77.226;2023-05-10T06:12:01;100513.38;;;20.68
80246;BMP280;69558;39.208;-77.226;2023-05-10T06:14:27;100479.84;;;20.49
80246;BMP280;69558;39.208;-77.226;2023-05-10T06:16:53;100507.66;;;20.64
80246;BMP280;69558;39.208;-77.226;2023-05-10T06:19:19;100508.91;;;20.68
80246;BMP280;69558;39.208;-77.226;2023-05-10T06:21:45;100514.19;;;20.68
80246;BMP280;69558;39.208;-77.226;2023-05-10T06:24:11;100517.03;;;20.67
80246;BMP280;69558;39.208;-77.226;2023-05-10T06:26:38;100491.44;;;20.54
80246;BMP280;69558;39.208;-77.226;2023-05-10T06:29:03;100508.09;;;20.68
80246;BMP280;69558;39.208;-77.226;2023-05-10T06:31:29;100486.16;;;20.54
80246;BMP280;69558;39.208;-77.226;2023-05-10T06:33:55;100513.59;;;20.66
80246;BMP280;69558;39.208;-77.226;2023-05-10T06:36:21;100512.94;;;20.64
80246;BMP280;69558;39.208;-77.226;2023-05-10T06:38:48;100513.16;;;20.63
80246;BMP280;69558;39.208;-77.226;2023-05-10T06:41:15;100505.25;;;20.63
80246;BMP280;69558;39.208;-77.226;2023-05-10T06:43:42;100475.78;;;20.46
80246;BMP280;69558;39.208;-77.226;2023-05-10T06:46:09;100494.06;;;20.54
80246;BMP280;69558;39.208;-77.226;2023-05-10T06:48:35;100521.69;;;20.65
80246;BMP280;69558;39.208;-77.226;2023-05-10T06:51:04;100510.06;;;20.59
80246;BMP280;69558;39.208;-77.226;2023-05-10T06:53:31;100512.34;;;20.62
80246;BMP280;69558;39.208;-77.226;2023-05-10T06:55:56;100521.69;;;20.65
80246;BMP280;69558;39.208;-77.226;2023-05-10T06:58:22;100525.31;;;20.64
80246;BMP280;69558;39.208;-77.226;2023-05-10T07:00:48;100522.91;;;20.62
80246;BMP280;69558;39.208;-77.226;2023-05-10T07:03:14;100516.00;;;20.61
80246;BMP280;69558;39.208;-77.226;2023-05-10T07:05:40;100493.44;;;20.52
80246;BMP280;69558;39.208;-77.226;2023-05-10T07:08:06;100503.59;;;20.55
80246;BMP280;69558;39.208;-77.226;2023-05-10T07:10:32;100489.38;;;20.50
80246;BMP280;69558;39.208;-77.226;2023-05-10T07:12:58;100506.47;;;20.60
80246;BMP280;69558;39.208;-77.226;2023-05-10T07:15:26;100503.41;;;20.57
80246;BMP280;69558;39.208;-77.226;2023-05-10T07:17:51;100509.91;;;20.61
80246;BMP280;69558;39.208;-77.226;2023-05-10T07:20:18;100505.03;;;20.58
80246;BMP280;69558;39.208;-77.226;2023-05-10T07:22:44;100503.16;;;20.52
80246;BMP280;69558;39.208;-77.226;2023-05-10T07:25:10;100507.88;;;20.56
80246;BMP280;69558;39.208;-77.226;2023-05-10T07:27:37;100513.56;;;20.60
80246;BMP280;69558;39.208;-77.226;2023-05-10T07:30:04;100514.75;;;20.57
80246;BMP280;69558;39.208;-77.226;2023-05-10T07:32:30;100496.66;;;20.48
80246;BMP280;69558;39.208;-77.226;2023-05-10T07:34:56;100482.25;;;20.43
80246;BMP280;69558;39.208;-77.226;2023-05-10T07:37:22;100508.66;;;20.57
80246;BMP280;69558;39.208;-77.226;2023-05-10T07:39:48;100502.16;;;20.53
80246;BMP280;69558;39.208;-77.226;2023-05-10T07:42:14;100506.84;;;20.57
80246;BMP280;69558;39.208;-77.226;2023-05-10T07:44:40;100520.84;;;20.58
80246;BMP280;69558;39.208;-77.226;2023-05-10T07:47:07;100506.19;;;20.49
80246;BMP280;69558;39.208;-77.226;2023-05-10T07:49:33;100523.25;;;20.53
80246;BMP280;69558;39.208;-77.226;2023-05-10T07:51:59;100534.22;;;20.56
80246;BMP280;69558;39.208;-77.226;2023-05-10T07:54:25;100524.44;;;20.50
80246;BMP280;69558;39.208;-77.226;2023-05-10T07:56:51;100524.88;;;20.54
80246;BMP280;69558;39.208;-77.226;2023-05-10T07:59:18;100524.44;;;20.50
80246;BMP280;69558;39.208;-77.226;2023-05-10T08:01:44;100511.66;;;20.47
80246;BMP280;69558;39.208;-77.226;2023-05-10T08:04:11;100530.34;;;20.52
80246;BMP280;69558;39.208;-77.226;2023-05-10T08:06:38;100501.03;;;20.34
80246;BMP280;69558;39.208;-77.226;2023-05-10T08:09:04;100519.13;;;20.43
80246;BMP280;69558;39.208;-77.226;2023-05-10T08:11:30;100532.53;;;20.49
80246;BMP280;69558;39.208;-77.226;2023-05-10T08:13:56;100509.16;;;20.39
80246;BMP280;69558;39.208;-77.226;2023-05-10T08:16:22;100536.00;;;20.49
80246;BMP280;69558;39.208;-77.226;2023-05-10T08:18:48;100546.78;;;20.54
80246;BMP280;69558;39.208;-77.226;2023-05-10T08:21:16;100548.41;;;20.55
80246;BMP280;69558;39.208;-77.226;2023-05-10T08:23:42;100548.41;;;20.55
80246;BMP280;69558;39.208;-77.226;2023-05-10T08:26:09;100539.44;;;20.50
80246;BMP280;69558;39.208;-77.226;2023-05-10T08:28:35;100552.66;;;20.56
80246;BMP280;69558;39.208;-77.226;2023-05-10T08:31:01;100551.66;;;20.57
80246;BMP280;69558;39.208;-77.226;2023-05-10T08:33:27;100554.88;;;20.53
80246;BMP280;69558;39.208;-77.226;2023-05-10T08:35:53;100547.31;;;20.43
80246;BMP280;69558;39.208;-77.226;2023-05-10T08:38:19;100566.22;;;20.53
80246;BMP280;69558;39.208;-77.226;2023-05-10T08:40:45;100562.78;;;20.53
80246;BMP280;69558;39.208;-77.226;2023-05-10T08:43:12;100565.41;;;20.53
80246;BMP280;69558;39.208;-77.226;2023-05-10T08:45:44;100567.44;;;20.51
80246;BMP280;69558;39.208;-77.226;2023-05-10T08:48:14;100566.63;;;20.50
80246;BMP280;69558;39.208;-77.226;2023-05-10T08:50:42;100562.78;;;20.53
80246;BMP280;69558;39.208;-77.226;2023-05-10T08:53:13;100567.84;;;20.54
80246;BMP280;69558;39.208;-77.226;2023-05-10T08:55:40;100560.97;;;20.53
80246;BMP280;69558;39.208;-77.226;2023-05-10T08:58:07;100555.69;;;20.53
80246;BMP280;69558;39.208;-77.226;2023-05-10T09:00:34;100563.78;;;20.52
80246;BMP280;69558;39.208;-77.226;2023-05-10T09:03:02;100565.22;;;20.54
80246;BMP280;69558;39.208;-77.226;2023-05-10T09:05:28;100570.69;;;20.53
80246;BMP280;69558;39.208;-77.226;2023-05-10T09:07:54;100585.31;;;20.55
80246;BMP280;69558;39.208;-77.226;2023-05-10T09:10:20;100592.00;;;20.58
80246;BMP280;69558;39.208;-77.226;2023-05-10T09:12:48;100579.78;;;20.50
80246;BMP280;69558;39.208;-77.226;2023-05-10T09:15:17;100580.56;;;20.44
80246;BMP280;69558;39.208;-77.226;2023-05-10T09:17:46;100595.00;;;20.55
80246;BMP280;69558;39.208;-77.226;2023-05-10T09:20:12;100595.00;;;20.55
80246;BMP280;69558;39.208;-77.226;2023-05-10T09:22:39;100611.66;;;20.55
80246;BMP280;69558;39.208;-77.226;2023-05-10T09:25:10;100600.25;;;20.48
80246;BMP280;69558;39.208;-77.226;2023-05-10T09:27:37;100622.78;;;20.51
80246;BMP280;69558;39.208;-77.226;2023-05-10T09:30:04;100591.03;;;20.31
80246;BMP280;69558;39.208;-77.226;2023-05-10T09:32:43;100622.34;;;20.47
80246;BMP280;69558;39.208;-77.226;2023-05-10T09:35:15;100628.22;;;20.49
80246;BMP280;69558;39.208;-77.226;2023-05-10T09:37:47;100627.41;;;20.49
80246;BMP280;69558;39.208;-77.226;2023-05-10T09:40:17;100631.69;;;20.50
80246;BMP280;69558;39.208;-77.226;2023-05-10T09:45:19;100638.53;;;20.44
80246;BMP280;69558;39.208;-77.226;2023-05-10T09:47:45;100632.84;;;20.40
80246;BMP280;69558;39.208;-77.226;2023-05-10T09:50:11;100640.75;;;20.40
80246;BMP280;69558;39.208;-77.226;2023-05-10T09:52:50;100628.56;;;20.39
80246;BMP280;69558;39.208;-77.226;2023-05-10T09:55:19;100634.88;;;20.45
80246;BMP280;69558;39.208;-77.226;2023-05-10T09:57:46;100641.16;;;20.44
80246;BMP280;69558;39.208;-77.226;2023-05-10T10:00:18;100634.84;;;20.38
80246;BMP280;69558;39.208;-77.226;2023-05-10T10:02:46;100647.44;;;20.43
80246;BMP280;69558;39.208;-77.226;2023-05-10T10:05:13;100656.56;;;20.40
80246;BMP280;69558;39.208;-77.226;2023-05-10T10:07:40;100667.09;;;20.40
80246;BMP280;69558;39.208;-77.226;2023-05-10T10:10:07;100673.59;;;20.44
80246;BMP280;69558;39.208;-77.226;2023-05-10T10:12:37;100643.66;;;20.24
80246;BMP280;69558;39.208;-77.226;2023-05-10T10:15:04;100676.81;;;20.40
80246;BMP280;69558;39.208;-77.226;2023-05-10T10:17:30;100667.84;;;20.34
80246;BMP280;69558;39.208;-77.226;2023-05-10T10:19:57;100694.88;;;20.43
80246;BMP280;69558;39.208;-77.226;2023-05-10T10:22:23;100695.88;;;20.42
80246;BMP280;69558;39.208;-77.226;2023-05-10T10:24:50;100703.00;;;20.41
80246;BMP280;69558;39.208;-77.226;2023-05-10T10:27:20;100715.38;;;20.41
80246;BMP280;69558;39.208;-77.226;2023-05-10T10:35:32;100696.13;;;20.26
80246;BMP280;69558;39.208;-77.226;2023-05-10T10:37:58;100712.03;;;20.32
80246;BMP280;69558;39.208;-77.226;2023-05-10T10:40:30;100731.31;;;20.39
80246;BMP280;69558;39.208;-77.226;2023-05-10T10:42:56;100736.44;;;20.41
80246;BMP280;69558;39.208;-77.226;2023-05-10T10:45:24;100708.69;;;20.24
80246;BMP280;69558;39.208;-77.226;2023-05-10T10:48:20;100748.50;;;20.35
80246;BMP280;69558;39.208;-77.226;2023-05-10T10:50:46;100741.00;;;20.32
80246;BMP280;69558;39.208;-77.226;2023-05-10T10:53:12;100749.38;;;20.36
80246;BMP280;69558;39.208;-77.226;2023-05-10T10:55:48;100757.88;;;20.38
80246;BMP280;69558;39.208;-77.226;2023-05-10T10:58:30;100745.25;;;20.33
80246;BMP280;69558;39.208;-77.226;2023-05-10T11:01:15;100757.63;;;20.33
80246;BMP280;69558;39.208;-77.226;2023-05-10T11:04:16;100760.00;;;20.28
80246;BMP280;69558;39.208;-77.226;2023-05-10T11:06:40;100768.38;;;20.31
80246;BMP280;69558;39.208;-77.226;2023-05-10T11:09:09;100758.75;;;20.24
80246;BMP280;69558;39.208;-77.226;2023-05-10T11:11:36;100762.84;;;20.26
80246;BMP280;69558;39.208;-77.226;2023-05-10T11:14:07;100758.19;;;20.28
80246;BMP280;69558;39.208;-77.226;2023-05-10T11:16:43;100742.88;;;20.17
80246;BMP280;69558;39.208;-77.226;2023-05-10T11:19:15;100742.88;;;20.17
80246;BMP280;69558;39.208;-77.226;2023-05-10T11:24:36;100780.13;;;20.35
80246;BMP280;69558;39.208;-77.226;2023-05-10T11:27:03;100778.09;;;20.31
80246;BMP280;69558;39.208;-77.226;2023-05-10T11:29:29;100778.09;;;20.31
80246;BMP280;69558;39.208;-77.226;2023-05-10T11:31:57;100780.72;;;20.31
80246;BMP280;69558;39.208;-77.226;2023-05-10T11:34:32;100784.00;;;20.33
80246;BMP280;69558;39.208;-77.226;2023-05-10T11:36:59;100763.41;;;20.22
80246;BMP280;69558;39.208;-77.226;2023-05-10T11:39:27;100774.56;;;20.24
80246;BMP280;69558;39.208;-77.226;2023-05-10T11:41:54;100778.47;;;20.28
80246;BMP280;69558;39.208;-77.226;2023-05-10T11:44:20;100774.00;;;20.28
80246;BMP280;69558;39.208;-77.226;2023-05-10T11:46:46;100764.84;;;20.24
80246;BMP280;69558;39.208;-77.226;2023-05-10T11:49:12;100783.91;;;20.26
80246;BMP280;69558;39.208;-77.226;2023-05-10T11:51:38;100762.06;;;20.11
80246;BMP280;69558;39.208;-77.226;2023-05-10T11:54:11;100783.91;;;20.26
80246;BMP280;69558;39.208;-77.226;2023-05-10T11:56:39;100790.81;;;20.27
80246;BMP280;69558;39.208;-77.226;2023-05-10T11:59:05;100786.38;;;20.28
80246;BMP280;69558;39.208;-77.226;2023-05-10T12:01:31;100782.91;;;20.27
80246;BMP280;69558;39.208;-77.226;2023-05-10T12:03:58;100787.38;;;20.27
80246;BMP280;69558;39.208;-77.226;2023-05-10T12:06:30;100770.03;;;20.18
80246;BMP280;69558;39.208;-77.226;2023-05-10T12:08:57;100791.25;;;20.31
80246;BMP280;69558;39.208;-77.226;2023-05-10T12:11:28;100794.72;;;20.31
80246;BMP280;69558;39.208;-77.226;2023-05-10T12:13:55;100796.69;;;20.29
80246;BMP280;69558;39.208;-77.226;2023-05-10T12:16:28;100797.72;;;20.28
80246;BMP280;69558;39.208;-77.226;2023-05-10T12:18:59;100796.91;;;20.28
80246;BMP280;69558;39.208;-77.226;2023-05-10T12:21:27;100801.63;;;20.32
80246;BMP280;69558;39.208;-77.226;2023-05-10T12:23:56;100771.03;;;20.17
80246;BMP280;69558;39.208;-77.226;2023-05-10T12:26:25;100799.16;;;20.31
80246;BMP280;69558;39.208;-77.226;2023-05-10T12:28:53;100802.78;;;20.30
80246;BMP280;69558;39.208;-77.226;2023-05-10T12:31:19;100797.91;;;20.27
80246;BMP280;69558;39.208;-77.226;2023-05-10T12:33:45;100805.00;;;20.26
80246;BMP280;69558;39.208;-77.226;2023-05-10T12:36:16;100811.88;;;20.27
80246;BMP280;69558;39.208;-77.226;2023-05-10T12:38:43;100811.88;;;20.27
80246;BMP280;69558;39.208;-77.226;2023-05-10T12:41:15;100809.84;;;20.29
80246;BMP280;69558;39.208;-77.226;2023-05-10T12:43:41;100821.78;;;20.25
80246;BMP280;69558;39.208;-77.226;2023-05-10T12:46:08;100819.78;;;20.27
80246;BMP280;69558;39.208;-77.226;2023-05-10T12:48:35;100818.56;;;20.30
80246;BMP280;69558;39.208;-77.226;2023-05-10T12:51:02;100826.06;;;20.26
80246;BMP280;69558;39.208;-77.226;2023-05-10T12:53:28;100825.88;;;20.28
80246;BMP280;69558;39.208;-77.226;2023-05-10T12:55:55;100824.25;;;20.27
80246;BMP280;69558;39.208;-77.226;2023-05-10T12:58:21;100803.38;;;20.10
80246;BMP280;69558;39.208;-77.226;2023-05-10T13:00:47;100822.16;;;20.22
80246;BMP280;69558;39.208;-77.226;2023-05-10T13:03:13;100830.22;;;20.21
80246;BMP280;69558;39.208;-77.226;2023-05-10T13:05:40;100833.88;;;20.20
80246;BMP280;69558;39.208;-77.226;2023-05-10T13:08:06;100821.44;;;20.13
80246;BMP280;69558;39.208;-77.226;2023-05-10T13:10:32;100823.72;;;20.17
80246;BMP280;69558;39.208;-77.226;2023-05-10T13:12:58;100822.09;;;20.16
80246;BMP280;69558;39.208;-77.226;2023-05-10T13:15:25;100824.09;;;20.13
80246;BMP280;69558;39.208;-77.226;2023-05-10T13:17:53;100815.59;;;20.11
80246;BMP280;69558;39.208;-77.226;2023-05-10T13:20:19;100799.75;;;19.97
80246;BMP280;69558;39.208;-77.226;2023-05-10T13:22:46;100811.84;;;20.06
80246;BMP280;69558;39.208;-77.226;2023-05-10T13:25:12;100809.56;;;20.18
80246;BMP280;69558;39.208;-77.226;2023-05-10T13:27:40;100799.00;;;20.18
80246;BMP280;69558;39.208;-77.226;2023-05-10T13:30:08;100776.22;;;20.10
80246;BMP280;69558;39.208;-77.226;2023-05-10T13:32:34;100802.78;;;20.30
80246;BMP280;69558;39.208;-77.226;2023-05-10T13:35:01;100805.25;;;20.31
80246;BMP280;69558;39.208;-77.226;2023-05-10T13:37:29;100801.63;;;20.32
80246;BMP280;69558;39.208;-77.226;2023-05-10T13:39:55;100793.19;;;20.22
80246;BMP280;69558;39.208;-77.226;2023-05-10T13:42:22;100812.97;;;20.33
80246;BMP280;69558;39.208;-77.226;2023-05-10T13:44:52;100811.88;;;20.27
80246;BMP280;69558;39.208;-77.226;2023-05-10T13:47:18;100807.06;;;20.31
80246;BMP280;69558;39.208;-77.226;2023-05-10T13:49:44;100813.31;;;20.30
80246;BMP280;69558;39.208;-77.226;2023-05-10T13:52:10;100808.50;;;20.33
80246;BMP280;69558;39.208;-77.226;2023-05-10T13:54:37;100794.88;;;20.30
80246;BMP280;69558;39.208;-77.226;2023-05-10T13:57:04;100802.06;;;20.36
80246;BMP280;69558;39.208;-77.226;2023-05-10T13:59:30;100811.94;;;20.34
80246;BMP280;69558;39.208;-77.226;2023-05-10T14:01:59;100813.16;;;20.31
80246;BMP280;69558;39.208;-77.226;2023-05-10T14:04:28;100816.88;;;20.37